Terminal Aerodrome Forecast
Issued by NWS

Home | Current Version | Previous Version | Text Only | Print | Product List | Glossary On
Versions: 1 2 3 4 5 6 7 8 9 10 11 12 13 14 15 16 17 18 19 20 21 22 23 24 25 26 27 28 29 30 31 32 33 34 35
000
FTUS45 KSLC 251502 AAA
TAF36U
TAF AMD
K36U 251502Z 2515/2612 VRB05KT P6SM SCT035 BKN100 OVC200
      TEMPO 2515/2516 BKN005 BKN090
     FM252100 20012KT P6SM -SHRA BKN025 OVC035
     FM260900 03012G18KT 3SM -RASN BKN025 OVC035=

USA.gov is the U.S. government's official web portal to all federal, state and local government web resources and services.